Time;durP1;ratioP1;P1;durP2;ratioP2;P2;SDS_P1;SDS_P2;PMS_P1;PMS_P2;Temp;Humidity;BMP_temperature;BMP_pressure;BME280_temperature;BME280_humidity;BME280_pressure;Samples;Min_cycle;Max_cycle;Signal;HPM_P1;HPM_P2
2022/02/27 00:01:14;;;;;;;8.32;3.13;;;7.50;61.30;;;;;;5090053;28;20024;-83
2022/02/27 00:03:40;;;;;;;8.57;3.53;;;7.50;61.30;;;;;;5089926;28;20080;-82
2022/02/27 00:06:06;;;;;;;5.30;3.00;;;7.50;61.40;;;;;;5089715;28;20035;-82
2022/02/27 00:08:32;;;;;;;6.75;3.20;;;7.50;61.40;;;;;;5091264;28;20073;-82
2022/02/27 00:10:58;;;;;;;6.13;3.33;;;7.50;61.40;;;;;;5089835;28;20573;-80
2022/02/27 00:13:24;;;;;;;7.05;3.67;;;7.50;61.40;;;;;;5071351;28;20483;-80
2022/02/27 00:15:50;;;;;;;10.27;4.72;;;7.50;61.40;;;;;;5089206;28;20024;-82
2022/02/27 00:18:16;;;;;;;6.65;3.15;;;7.50;61.40;;;;;;5089231;28;20513;-81
2022/02/27 00:20:44;;;;;;;5.78;3.28;;;7.50;61.40;;;;;;5071126;28;20093;-85
2022/02/27 00:23:10;;;;;;;7.78;3.90;;;7.50;61.40;;;;;;5089652;28;20028;-85
2022/02/27 00:25:36;;;;;;;9.70;3.47;;;7.40;61.20;;;;;;5055765;28;20036;-85
2022/02/27 00:28:02;;;;;;;8.70;3.55;;;7.40;61.20;;;;;;5070783;28;20035;-82
2022/02/27 00:30:28;;;;;;;6.47;3.40;;;7.40;61.20;;;;;;5035899;28;20035;-85
2022/02/27 00:32:54;;;;;;;5.80;3.08;;;7.40;61.30;;;;;;5052762;28;20483;-85
2022/02/27 00:35:20;;;;;;;8.05;3.33;;;7.30;61.10;;;;;;5053932;28;20137;-85
2022/02/27 00:37:46;;;;;;;10.35;4.45;;;7.30;61.10;;;;;;5070604;28;20040;-86
2022/02/27 00:40:12;;;;;;;8.35;2.90;;;7.30;61.20;;;;;;5070217;28;20048;-88
2022/02/27 00:42:38;;;;;;;5.07;3.05;;;7.30;61.20;;;;;;5052910;28;20414;-87
2022/02/27 00:45:05;;;;;;;6.57;3.50;;;7.30;61.20;;;;;;5052862;28;20028;-85
2022/02/27 00:47:31;;;;;;;4.68;2.70;;;7.30;61.20;;;;;;5035262;28;20055;-84
2022/02/27 00:49:57;;;;;;;9.65;3.50;;;7.30;61.20;;;;;;5053294;28;20103;-86
2022/02/27 00:52:25;;;;;;;6.00;3.72;;;7.30;61.20;;;;;;5051704;28;20052;-85
2022/02/27 00:54:53;;;;;;;7.32;3.80;;;7.30;61.20;;;;;;5069454;28;20025;-85
2022/02/27 00:57:20;;;;;;;5.28;2.83;;;7.30;61.20;;;;;;5069756;28;20024;-84
2022/02/27 00:59:46;;;;;;;5.38;3.33;;;7.30;61.20;;;;;;5072037;28;20031;-85
2022/02/27 01:02:12;;;;;;;6.80;3.47;;;7.20;61.10;;;;;;5055690;28;20055;-85
2022/02/27 01:04:39;;;;;;;7.30;3.30;;;7.30;61.20;;;;;;5074421;28;20641;-84
2022/02/27 01:07:06;;;;;;;4.30;3.03;;;7.30;61.20;;;;;;5070724;28;20085;-84
2022/02/27 01:09:32;;;;;;;5.32;2.90;;;7.30;61.20;;;;;;5068897;28;20028;-83
2022/02/27 01:11:58;;;;;;;6.47;2.97;;;7.30;61.20;;;;;;5050517;28;20339;-85
2022/02/27 01:14:24;;;;;;;5.63;3.13;;;7.20;61.00;;;;;;5054030;28;20024;-83
2022/02/27 01:16:50;;;;;;;8.30;3.25;;;7.20;61.00;;;;;;5088870;28;20123;-84
2022/02/27 01:19:16;;;;;;;7.75;3.58;;;7.30;61.20;;;;;;5070310;28;20418;-84
2022/02/27 01:21:43;;;;;;;9.65;3.15;;;7.30;61.10;;;;;;5053641;28;20028;-83
2022/02/27 01:24:09;;;;;;;5.47;3.00;;;7.20;61.00;;;;;;5053223;28;20020;-84
2022/02/27 01:26:35;;;;;;;6.45;3.45;;;7.20;61.00;;;;;;5070011;28;20047;-83
2022/02/27 01:29:02;;;;;;;8.98;4.25;;;7.20;61.00;;;;;;5069526;28;20032;-83
2022/02/27 01:31:28;;;;;;;8.68;3.33;;;7.20;61.00;;;;;;5069486;28;20367;-84
2022/02/27 01:33:54;;;;;;;8.02;2.85;;;7.20;61.00;;;;;;5069760;28;20130;-84
2022/02/27 01:36:20;;;;;;;7.13;3.08;;;7.20;61.00;;;;;;5090363;28;20035;-87
2022/02/27 01:38:46;;;;;;;8.63;3.13;;;7.20;61.00;;;;;;5072366;28;20020;-86
2022/02/27 01:41:15;;;;;;;7.07;3.38;;;7.20;61.00;;;;;;5090106;28;20119;-85
2022/02/27 01:43:42;;;;;;;7.97;3.35;;;7.20;61.00;;;;;;5071248;28;20513;-85
2022/02/27 01:46:10;;;;;;;6.40;3.60;;;7.10;60.80;;;;;;5054676;28;20040;-86
2022/02/27 01:48:37;;;;;;;6.97;3.88;;;7.10;60.80;;;;;;5088495;28;20399;-84
2022/02/27 01:51:04;;;;;;;11.82;3.80;;;7.10;60.80;;;;;;5088826;28;20028;-85
2022/02/27 01:53:30;;;;;;;6.70;3.15;;;7.10;60.80;;;;;;5088813;28;20032;-85
2022/02/27 01:55:56;;;;;;;10.13;3.50;;;7.10;60.80;;;;;;5053326;28;20036;-86
2022/02/27 01:58:25;;;;;;;5.90;2.95;;;7.10;60.90;;;;;;5069811;28;20032;-86
2022/02/27 02:00:51;;;;;;;8.15;3.55;;;7.10;60.90;;;;;;5053212;28;20024;-85
2022/02/27 02:03:17;;;;;;;9.68;4.40;;;7.10;61.40;;;;;;5070037;28;20060;-86
2022/02/27 02:05:43;;;;;;;7.18;3.30;;;7.10;60.80;;;;;;5070057;28;20070;-84
2022/02/27 02:08:09;;;;;;;6.95;3.10;;;7.10;60.80;;;;;;5068819;28;20036;-84
2022/02/27 02:10:37;;;;;;;5.95;3.10;;;7.10;60.80;;;;;;5053278;28;20032;-84
2022/02/27 02:13:06;;;;;;;6.03;2.83;;;7.10;60.80;;;;;;5070052;28;20051;-84
2022/02/27 02:15:32;;;;;;;7.45;3.72;;;7.10;60.80;;;;;;5069311;28;20058;-85
2022/02/27 02:18:00;;;;;;;5.50;3.08;;;7.10;60.70;;;;;;5070343;28;20115;-84
2022/02/27 02:20:26;;;;;;;8.32;3.70;;;7.10;60.80;;;;;;5073805;28;20069;-84
2022/02/27 02:22:54;;;;;;;7.13;3.75;;;7.10;60.80;;;;;;5074100;28;20036;-85
2022/02/27 02:25:21;;;;;;;6.85;3.40;;;7.10;60.80;;;;;;5073705;28;20047;-84
2022/02/27 02:27:47;;;;;;;5.78;2.95;;;7.10;60.80;;;;;;5057217;28;20040;-84
2022/02/27 02:30:15;;;;;;;6.13;3.50;;;7.00;60.60;;;;;;5073284;28;20081;-84
2022/02/27 02:32:56;;;;;;;5.20;3.15;;;7.00;60.60;;;;;;5073164;28;20082;-85
2022/02/27 02:35:25;;;;;;;6.43;4.13;;;7.00;60.60;;;;;;5073212;28;20036;-83
2022/02/27 02:37:51;;;;;;;5.88;3.38;;;7.00;60.60;;;;;;5073343;28;20028;-84
2022/02/27 02:40:17;;;;;;;10.00;4.15;;;7.00;60.60;;;;;;5073163;28;20023;-85
2022/02/27 02:42:45;;;;;;;6.95;3.65;;;7.00;60.60;;;;;;5072967;28;20028;-85
2022/02/27 02:45:13;;;;;;;10.32;4.57;;;7.00;60.70;;;;;;5072370;28;20530;-83
2022/02/27 02:47:41;;;;;;;6.40;3.90;;;6.90;60.50;;;;;;5083143;28;20048;-85
2022/02/27 02:50:08;;;;;;;7.35;3.38;;;6.90;60.50;;;;;;5065285;28;20062;-84
2022/02/27 02:52:35;;;;;;;5.82;3.55;;;6.90;60.50;;;;;;5074288;28;20085;-85
2022/02/27 02:55:12;;;;;;;5.25;3.60;;;6.90;60.50;;;;;;5073254;28;20028;-83
2022/02/27 02:57:39;;;;;;;7.20;4.57;;;6.90;60.50;;;;;;5073286;28;20052;-83
2022/02/27 03:00:08;;;;;;;7.22;4.03;;;6.90;60.50;;;;;;5073987;28;20059;-84
2022/02/27 03:02:35;;;;;;;6.40;3.60;;;6.90;60.50;;;;;;5073926;28;20039;-84
2022/02/27 03:05:05;;;;;;;8.50;3.83;;;6.90;60.50;;;;;;5072802;28;20143;-81
2022/02/27 03:07:33;;;;;;;10.55;4.18;;;6.90;60.50;;;;;;5073748;28;20036;-82
2022/02/27 03:09:59;;;;;;;7.55;3.95;;;6.90;60.50;;;;;;5072102;28;20025;-82
2022/02/27 03:12:25;;;;;;;10.05;3.50;;;6.90;60.50;;;;;;5073388;28;20032;-82
2022/02/27 03:14:52;;;;;;;6.78;4.10;;;6.90;60.60;;;;;;5055973;28;20048;-83
2022/02/27 03:17:18;;;;;;;8.85;4.15;;;6.90;60.60;;;;;;5072621;28;20029;-82
2022/02/27 03:19:44;;;;;;;11.13;4.05;;;6.80;60.40;;;;;;5073366;28;20104;-81
2022/02/27 03:22:10;;;;;;;9.13;4.10;;;6.80;60.40;;;;;;5072444;28;20051;-82
2022/02/27 03:24:36;;;;;;;7.50;3.35;;;6.80;60.50;;;;;;5073734;28;20472;-83
2022/02/27 03:27:02;;;;;;;8.50;4.10;;;6.80;60.50;;;;;;5055702;28;20592;-84
2022/02/27 03:29:28;;;;;;;6.82;4.15;;;6.80;60.50;;;;;;5073408;28;20055;-82
2022/02/27 03:31:54;;;;;;;8.35;4.25;;;6.70;60.30;;;;;;5055324;28;20039;-82
2022/02/27 03:34:21;;;;;;;7.03;3.47;;;6.80;60.50;;;;;;5056388;28;20024;-83
2022/02/27 03:36:47;;;;;;;7.90;4.13;;;6.80;60.50;;;;;;5074149;28;20122;-82
2022/02/27 03:39:14;;;;;;;8.25;4.50;;;6.70;60.40;;;;;;5073578;28;20028;-83
2022/02/27 03:41:40;;;;;;;7.07;4.47;;;6.70;60.40;;;;;;5055596;28;20127;-82
2022/02/27 03:44:06;;;;;;;10.68;4.18;;;6.70;60.40;;;;;;5055092;28;20067;-83
2022/02/27 03:46:34;;;;;;;10.15;4.60;;;6.70;60.40;;;;;;5055115;28;20040;-83
2022/02/27 03:49:04;;;;;;;8.82;4.45;;;6.70;60.40;;;;;;5055270;28;20037;-83
2022/02/27 03:51:32;;;;;;;7.30;4.75;;;6.70;60.40;;;;;;5071994;28;20052;-82
2022/02/27 03:53:58;;;;;;;6.75;4.30;;;6.70;60.40;;;;;;5055101;28;20035;-82
2022/02/27 03:56:24;;;;;;;10.85;4.78;;;6.70;60.40;;;;;;5073191;28;20020;-82
2022/02/27 03:58:50;;;;;;;6.95;4.10;;;6.70;60.40;;;;;;5072638;28;20082;-82
2022/02/27 04:01:16;;;;;;;12.68;4.50;;;6.70;60.40;;;;;;5072690;28;20675;-84
2022/02/27 04:03:44;;;;;;;10.23;4.63;;;6.70;60.40;;;;;;5074104;28;20132;-83
2022/02/27 04:06:12;;;;;;;8.68;4.68;;;6.70;60.40;;;;;;5057275;28;20508;-82
2022/02/27 04:08:39;;;;;;;7.45;4.55;;;6.70;60.40;;;;;;5072932;28;20128;-83
2022/02/27 04:11:06;;;;;;;8.90;4.47;;;6.70;60.40;;;;;;5054755;28;20025;-82
2022/02/27 04:13:33;;;;;;;9.73;5.18;;;6.70;60.40;;;;;;5072868;28;20553;-82
2022/02/27 04:15:59;;;;;;;7.63;5.55;;;6.70;60.40;;;;;;5054838;28;20078;-82
2022/02/27 04:18:25;;;;;;;6.78;4.60;;;6.70;60.40;;;;;;5072607;28;20028;-81
2022/02/27 04:20:51;;;;;;;7.38;5.07;;;6.70;60.40;;;;;;5072498;28;20051;-82
2022/02/27 04:23:17;;;;;;;10.73;4.57;;;6.70;60.40;;;;;;5072563;28;20472;-83
2022/02/27 04:25:44;;;;;;;7.10;4.55;;;6.60;60.30;;;;;;5071110;28;20032;-83
2022/02/27 04:28:10;;;;;;;11.07;5.20;;;6.70;60.50;;;;;;5054499;28;20040;-83
2022/02/27 04:30:36;;;;;;;8.32;4.80;;;6.60;60.30;;;;;;5072493;28;20491;-82
2022/02/27 04:33:03;;;;;;;8.90;5.22;;;6.60;60.90;;;;;;5071936;28;20090;-83
2022/02/27 04:35:29;;;;;;;10.77;6.05;;;6.60;60.30;;;;;;5071050;28;20055;-83
2022/02/27 04:37:56;;;;;;;9.43;5.50;;;6.60;60.30;;;;;;5072015;28;20028;-82
2022/02/27 04:40:22;;;;;;;10.07;4.95;;;6.60;60.40;;;;;;5071465;28;20048;-83
2022/02/27 04:42:48;;;;;;;8.32;5.40;;;6.60;60.40;;;;;;5071948;28;20024;-82
2022/02/27 04:45:14;;;;;;;9.57;4.85;;;6.60;60.40;;;;;;5071898;28;20479;-83
2022/02/27 04:47:40;;;;;;;10.75;5.30;;;6.60;60.40;;;;;;5070175;28;20052;-84
2022/02/27 04:50:06;;;;;;;12.48;6.15;;;6.60;60.40;;;;;;5071855;28;20028;-83
2022/02/27 04:52:34;;;;;;;8.32;4.55;;;6.60;60.40;;;;;;5053967;28;20036;-84
2022/02/27 04:55:00;;;;;;;9.70;4.90;;;6.50;60.20;;;;;;5070280;28;20032;-84
2022/02/27 04:57:26;;;;;;;9.18;4.68;;;6.60;60.40;;;;;;5072071;28;20054;-84
2022/02/27 04:59:52;;;;;;;8.68;4.82;;;6.60;60.40;;;;;;5071939;28;20032;-84
2022/02/27 05:02:18;;;;;;;7.40;4.38;;;6.50;60.30;;;;;;5070623;28;20174;-85
2022/02/27 05:04:44;;;;;;;9.80;4.78;;;6.50;60.20;;;;;;5053664;28;20051;-84
2022/02/27 05:07:10;;;;;;;9.70;5.43;;;6.50;60.20;;;;;;5071690;28;20391;-84
2022/02/27 05:09:36;;;;;;;7.65;4.85;;;6.50;60.20;;;;;;5053556;28;20047;-84
2022/02/27 05:12:03;;;;;;;8.05;4.65;;;6.50;60.30;;;;;;5070459;28;20032;-83
2022/02/27 05:14:32;;;;;;;10.43;5.82;;;6.50;60.30;;;;;;5053463;28;20025;-84
2022/02/27 05:16:58;;;;;;;10.85;5.40;;;6.50;60.30;;;;;;5071095;28;20039;-83
2022/02/27 05:19:24;;;;;;;7.30;4.75;;;6.40;60.20;;;;;;5053899;28;20029;-84
2022/02/27 05:21:50;;;;;;;9.73;5.20;;;6.40;60.20;;;;;;5053917;28;20032;-84
2022/02/27 05:24:16;;;;;;;9.00;5.25;;;6.50;60.40;;;;;;5071078;28;20487;-84
2022/02/27 05:26:43;;;;;;;10.25;4.88;;;6.40;60.30;;;;;;5053732;28;20450;-83
2022/02/27 05:29:09;;;;;;;10.90;5.78;;;6.40;60.30;;;;;;5071573;28;20363;-83
2022/02/27 05:31:35;;;;;;;10.40;5.07;;;6.40;60.30;;;;;;5070891;28;20031;-82
2022/02/27 05:34:02;;;;;;;11.23;5.57;;;6.40;60.80;;;;;;5071177;28;20024;-82
2022/02/27 05:36:28;;;;;;;9.07;5.82;;;6.30;60.20;;;;;;5071504;28;20096;-82
2022/02/27 05:38:54;;;;;;;8.02;4.78;;;6.30;60.20;;;;;;5071146;28;20028;-83
2022/02/27 05:41:21;;;;;;;9.57;5.22;;;6.30;60.20;;;;;;5053054;28;20119;-83
2022/02/27 05:43:47;;;;;;;8.10;5.00;;;6.30;60.20;;;;;;5070517;28;20028;-83
2022/02/27 05:46:13;;;;;;;10.82;5.80;;;6.30;60.20;;;;;;5069685;28;20098;-83
2022/02/27 05:48:39;;;;;;;7.13;5.50;;;6.30;60.20;;;;;;5066380;28;20063;-85
2022/02/27 05:51:05;;;;;;;9.73;5.15;;;6.30;60.30;;;;;;5067724;28;20051;-84
2022/02/27 05:53:32;;;;;;;9.80;5.30;;;6.30;60.30;;;;;;5066884;28;20040;-85
2022/02/27 05:55:58;;;;;;;10.35;5.28;;;6.30;60.30;;;;;;5033326;28;20487;-83
2022/02/27 05:58:25;;;;;;;11.30;5.90;;;6.30;60.30;;;;;;5039993;28;20546;-85
2022/02/27 06:00:52;;;;;;;11.27;5.50;;;6.30;60.30;;;;;;5077522;28;20025;-84
2022/02/27 06:03:19;;;;;;;11.50;5.10;;;6.30;60.30;;;;;;5050247;28;20043;-84
2022/02/27 06:05:45;;;;;;;10.85;6.03;;;6.30;60.30;;;;;;5067743;28;20028;-82
2022/02/27 06:08:14;;;;;;;10.20;5.38;;;6.20;60.10;;;;;;5067883;28;20232;-82
2022/02/27 06:10:40;;;;;;;13.18;5.07;;;6.30;60.30;;;;;;5078851;28;20123;-83
2022/02/27 06:13:06;;;;;;;10.30;5.07;;;6.20;60.10;;;;;;5066439;28;20112;-82
2022/02/27 06:15:32;;;;;;;11.60;4.72;;;6.20;60.20;;;;;;5068318;28;20021;-84
2022/02/27 06:17:59;;;;;;;11.10;5.30;;;6.20;60.20;;;;;;5050815;28;20028;-86
2022/02/27 06:20:25;;;;;;;8.60;4.88;;;6.20;60.20;;;;;;5049538;28;20169;-83
2022/02/27 06:22:52;;;;;;;10.20;5.20;;;6.20;60.20;;;;;;5067298;28;20107;-79
2022/02/27 06:25:20;;;;;;;9.98;5.25;;;6.10;60.10;;;;;;5067613;28;20111;-77
2022/02/27 06:27:46;;;;;;;8.57;4.93;;;6.10;60.10;;;;;;5050572;28;20247;-75
2022/02/27 06:30:21;;;;;;;10.57;5.43;;;6.20;60.30;;;;;;5083064;28;20039;-78
2022/02/27 06:32:49;;;;;;;8.70;5.70;;;6.10;60.10;;;;;;5088554;28;20031;-79
2022/02/27 06:35:17;;;;;;;9.68;5.05;;;6.10;60.20;;;;;;5087833;28;20062;-80
2022/02/27 06:37:44;;;;;;;9.93;4.80;;;6.10;60.20;;;;;;5085261;28;20031;-82
2022/02/27 06:40:11;;;;;;;9.30;5.68;;;6.10;60.20;;;;;;5066886;28;20063;-80
2022/02/27 06:42:39;;;;;;;9.88;5.50;;;6.10;60.20;;;;;;5067290;28;20025;-81
2022/02/27 06:45:06;;;;;;;11.45;5.38;;;6.10;60.20;;;;;;5066899;28;20029;-77
2022/02/27 06:47:32;;;;;;;11.50;5.47;;;6.10;60.20;;;;;;5066279;28;20052;-81
2022/02/27 06:50:00;;;;;;;11.48;5.65;;;6.10;60.30;;;;;;5066721;28;20501;-80
2022/02/27 06:52:26;;;;;;;9.00;4.85;;;6.10;60.30;;;;;;5067008;28;20387;-76
2022/02/27 06:54:52;;;;;;;8.43;6.53;;;6.10;60.30;;;;;;5048357;28;20020;-78
2022/02/27 06:57:18;;;;;;;9.20;5.40;;;6.00;60.10;;;;;;5066971;28;20119;-80
2022/02/27 06:59:44;;;;;;;7.85;4.97;;;6.00;60.10;;;;;;5066627;28;20085;-80
2022/02/27 07:02:12;;;;;;;8.25;4.95;;;6.00;60.10;;;;;;5060826;28;20032;-83
2022/02/27 07:04:38;;;;;;;10.50;5.53;;;6.00;60.10;;;;;;5088368;28;20574;-81
2022/02/27 07:07:04;;;;;;;14.27;5.63;;;6.00;60.10;;;;;;5072781;28;20617;-82
2022/02/27 07:09:30;;;;;;;8.77;4.90;;;6.00;60.10;;;;;;5055769;28;20032;-78
2022/02/27 07:11:57;;;;;;;10.02;6.07;;;6.00;60.10;;;;;;5090525;28;20028;-78
2022/02/27 07:14:23;;;;;;;10.35;4.90;;;6.00;60.20;;;;;;5091110;28;20097;-79
2022/02/27 07:16:49;;;;;;;7.85;5.13;;;6.00;60.10;;;;;;5065363;28;20035;-75
2022/02/27 07:19:16;;;;;;;7.72;4.40;;;6.00;60.10;;;;;;5070445;28;20028;-77
2022/02/27 07:21:42;;;;;;;11.88;5.40;;;6.00;60.10;;;;;;5086575;28;20043;-76
2022/02/27 07:24:08;;;;;;;10.57;5.43;;;6.00;60.30;;;;;;5072583;28;20056;-77
2022/02/27 07:26:34;;;;;;;12.07;5.15;;;6.00;60.40;;;;;;5069705;28;20112;-77
2022/02/27 07:29:00;;;;;;;9.43;4.70;;;6.10;60.50;;;;;;5075449;28;20479;-78
2022/02/27 07:31:27;;;;;;;8.18;5.05;;;6.10;60.50;;;;;;5077623;28;20043;-79
2022/02/27 07:33:53;;;;;;;10.23;5.32;;;6.10;60.50;;;;;;5069706;28;20158;-80
2022/02/27 07:36:19;;;;;;;11.80;5.65;;;6.10;60.40;;;;;;5065974;28;20031;-78
2022/02/27 07:38:46;;;;;;;11.57;5.57;;;6.20;60.60;;;;;;5074553;28;20043;-79
2022/02/27 07:41:12;;;;;;;8.23;4.57;;;6.20;60.60;;;;;;5089911;28;20050;-78
2022/02/27 07:43:38;;;;;;;10.48;5.53;;;6.20;60.50;;;;;;5071847;28;20032;-78
2022/02/27 07:46:04;;;;;;;8.45;5.43;;;6.30;60.70;;;;;;5071842;28;20075;-77
2022/02/27 07:48:31;;;;;;;7.43;4.75;;;6.30;60.70;;;;;;5089212;28;20043;-80
2022/02/27 07:50:57;;;;;;;11.13;5.28;;;6.30;60.60;;;;;;5071577;28;20024;-79
2022/02/27 07:53:23;;;;;;;9.20;5.13;;;6.40;60.70;;;;;;5076208;28;20093;-80
2022/02/27 07:55:49;;;;;;;10.07;4.95;;;6.40;60.70;;;;;;5064505;28;20146;-77
2022/02/27 07:58:15;;;;;;;8.90;4.90;;;6.40;60.60;;;;;;5069851;28;20122;-75
2022/02/27 08:00:41;;;;;;;10.80;5.18;;;6.40;60.60;;;;;;5079489;28;20032;-82
2022/02/27 08:03:08;;;;;;;10.77;5.70;;;6.50;60.70;;;;;;5079437;28;20032;-83
2022/02/27 08:05:34;;;;;;;10.93;5.50;;;6.50;60.70;;;;;;5089001;28;20028;-84
2022/02/27 08:08:00;;;;;;;9.07;4.78;;;6.50;60.60;;;;;;5068697;28;20075;-89
2022/02/27 08:10:27;;;;;;;8.05;4.32;;;6.60;60.70;;;;;;5058632;28;20554;-88
2022/02/27 08:12:54;;;;;;;10.85;5.88;;;6.60;60.70;;;;;;5085392;28;20508;-92
2022/02/27 08:15:20;;;;;;;12.15;5.30;;;6.70;60.80;;;;;;5065513;28;20123;-90
2022/02/27 08:17:47;;;;;;;8.85;4.68;;;6.70;60.70;;;;;;5079567;28;20241;-79
2022/02/27 08:20:13;;;;;;;11.75;5.53;;;6.70;60.70;;;;;;5073515;28;20487;-89
2022/02/27 08:22:40;;;;;;;8.27;4.72;;;6.80;60.80;;;;;;5079950;28;20032;-94
2022/02/27 08:25:07;;;;;;;9.48;5.35;;;6.80;60.70;;;;;;5072285;28;20123;-86
2022/02/27 08:27:34;;;;;;;9.15;5.35;;;6.80;60.70;;;;;;5069649;28;20089;-82
2022/02/27 08:30:00;;;;;;;10.52;6.15;;;6.90;60.90;;;;;;5050804;28;20036;-83
2022/02/27 08:32:26;;;;;;;11.25;5.88;;;6.90;61.10;;;;;;5069057;28;20024;-79
2022/02/27 08:34:53;;;;;;;9.30;4.60;;;7.00;61.40;;;;;;5069970;28;20073;-84
2022/02/27 08:37:19;;;;;;;10.45;5.65;;;7.10;61.70;;;;;;5078063;28;20024;-86
2022/02/27 08:39:45;;;;;;;9.45;6.10;;;7.20;61.70;;;;;;5070147;28;20475;-84
2022/02/27 08:42:11;;;;;;;11.13;5.38;;;7.30;61.90;;;;;;5089487;28;20036;-81
2022/02/27 08:44:38;;;;;;;12.02;5.00;;;7.30;61.90;;;;;;5089570;28;20024;-87
2022/02/27 08:47:07;;;;;;;10.27;5.13;;;7.30;61.80;;;;;;5090155;28;20048;-83
2022/02/27 08:49:37;;;;;;;9.60;5.78;;;7.30;61.80;;;;;;5091289;28;20277;-85
2022/02/27 08:52:06;;;;;;;10.57;5.55;;;7.40;62.00;;;;;;5091740;28;20433;-83
2022/02/27 08:54:32;;;;;;;11.20;4.85;;;7.40;61.90;;;;;;5072063;28;20031;-81
2022/02/27 08:56:59;;;;;;;11.15;5.43;;;7.40;61.90;;;;;;5065771;28;20487;-87
2022/02/27 08:59:26;;;;;;;10.82;6.78;;;7.40;61.80;;;;;;5055090;28;20086;-90
2022/02/27 09:01:52;;;;;;;10.00;5.10;;;7.50;62.00;;;;;;5069321;28;20036;-79
2022/02/27 09:04:18;;;;;;;15.68;6.05;;;7.50;61.90;;;;;;5084471;28;20020;-81
2022/02/27 09:06:45;;;;;;;11.43;5.85;;;7.60;62.10;;;;;;5070776;28;20040;-81
2022/02/27 09:09:15;;;;;;;11.93;6.32;;;7.60;61.90;;;;;;5084582;28;20491;-83
2022/02/27 09:11:42;;;;;;;13.82;6.32;;;7.60;61.70;;;;;;5068375;28;20074;-76
2022/02/27 09:14:08;;;;;;;15.02;6.38;;;7.60;61.60;;;;;;5055765;28;20024;-77
2022/02/27 09:16:34;;;;;;;12.05;6.22;;;7.60;61.50;;;;;;5060069;28;20718;-80
2022/02/27 09:19:00;;;;;;;16.20;7.70;;;7.60;61.40;;;;;;5061154;28;20172;-81
2022/02/27 09:21:28;;;;;;;14.85;7.03;;;7.60;61.30;;;;;;5078378;28;20470;-80
2022/02/27 09:23:55;;;;;;;11.35;6.18;;;7.60;61.20;;;;;;5076886;28;20119;-91
2022/02/27 09:26:22;;;;;;;19.02;6.88;;;7.60;61.20;;;;;;5076169;28;20029;-90
2022/02/27 09:28:49;;;;;;;19.27;6.70;;;7.60;61.10;;;;;;5081972;28;20564;-86
2022/02/27 09:31:15;;;;;;;17.40;7.43;;;7.70;61.20;;;;;;5080613;28;20024;-88
2022/02/27 09:33:42;;;;;;;14.38;6.97;;;7.70;61.10;;;;;;5081271;28;20468;-88
2022/02/27 09:36:10;;;;;;;17.00;6.72;;;7.70;61.10;;;;;;5060271;28;20028;-83
2022/02/27 09:38:39;;;;;;;16.05;8.32;;;7.80;61.20;;;;;;5078202;28;20555;-83
2022/02/27 09:41:06;;;;;;;10.82;5.80;;;7.70;60.90;;;;;;5047532;28;20028;-76
2022/02/27 09:43:32;;;;;;;13.38;6.93;;;7.80;61.00;;;;;;5077011;28;20313;-78
2022/02/27 09:46:00;;;;;;;12.27;5.65;;;7.80;60.90;;;;;;5062477;28;20495;-83
2022/02/27 09:48:27;;;;;;;11.88;5.63;;;7.90;61.00;;;;;;5078910;28;20129;-86
2022/02/27 09:50:54;;;;;;;15.00;6.55;;;7.90;60.90;;;;;;5056794;28;20051;-82
2022/02/27 09:53:20;;;;;;;18.52;6.40;;;7.90;60.90;;;;;;5077452;28;20043;-86
2022/02/27 09:55:47;;;;;;;16.10;6.07;;;8.00;60.90;;;;;;5082092;28;20034;-84
2022/02/27 09:58:13;;;;;;;13.90;6.15;;;8.10;61.00;;;;;;5063640;28;20033;-84
2022/02/27 10:00:39;;;;;;;14.98;6.85;;;8.10;61.00;;;;;;5067807;28;20039;-81
2022/02/27 10:03:05;;;;;;;11.70;5.93;;;8.20;61.10;;;;;;5049519;28;20032;-83
2022/02/27 10:05:36;;;;;;;10.80;5.32;;;8.20;61.10;;;;;;5067653;28;20492;-83
2022/02/27 10:08:04;;;;;;;14.68;5.25;;;8.20;61.00;;;;;;5067451;28;20040;-85
2022/02/27 10:10:31;;;;;;;11.52;5.20;;;8.30;61.10;;;;;;5049295;28;20024;-86
2022/02/27 10:12:58;;;;;;;15.10;5.78;;;8.30;61.00;;;;;;5067775;28;20035;-84
2022/02/27 10:15:24;;;;;;;22.33;6.32;;;8.30;60.90;;;;;;5051701;28;20044;-84
2022/02/27 10:17:51;;;;;;;9.95;5.05;;;8.40;61.10;;;;;;5055578;28;20057;-85
2022/02/27 10:20:23;;;;;;;15.18;5.00;;;8.40;61.00;;;;;;5065922;28;20130;-83
2022/02/27 10:22:51;;;;;;;16.83;5.15;;;8.50;61.10;;;;;;5080517;28;20274;-85
2022/02/27 10:25:25;;;;;;;15.70;6.03;;;8.50;61.10;;;;;;5079972;28;20032;-85
2022/02/27 10:27:58;;;;;;;17.20;5.28;;;8.60;61.20;;;;;;5077309;28;20051;-88
2022/02/27 10:30:38;;;;;;;14.35;5.95;;;8.60;61.10;;;;;;5055053;28;20411;-83
2022/02/27 10:33:09;;;;;;;10.13;4.88;;;8.70;61.20;;;;;;5069884;28;20036;-92
2022/02/27 10:35:50;;;;;;;12.68;6.35;;;8.70;61.30;;;;;;5080240;28;20024;-86
2022/02/27 10:38:17;;;;;;;11.32;4.57;;;8.80;61.40;;;;;;5088543;28;20025;-82
2022/02/27 10:40:49;;;;;;;13.77;5.57;;;8.90;61.50;;;;;;5092472;28;20459;-89
2022/02/27 10:43:17;;;;;;;12.38;5.47;;;9.00;61.60;;;;;;5065041;28;20364;-89
2022/02/27 10:45:44;;;;;;;10.15;5.22;;;9.00;61.50;;;;;;5063597;28;20031;-87
2022/02/27 10:48:15;;;;;;;12.55;4.90;;;9.10;62.10;;;;;;5083230;28;20062;-87
2022/02/27 10:50:43;;;;;;;11.68;5.40;;;9.20;61.70;;;;;;5082744;28;20020;-87
2022/02/27 10:53:13;;;;;;;12.20;5.68;;;9.20;61.50;;;;;;5080048;28;20025;-87
2022/02/27 10:55:40;;;;;;;10.68;4.60;;;9.30;61.60;;;;;;5084083;28;20019;-88
2022/02/27 10:58:06;;;;;;;8.75;4.38;;;9.40;62.20;;;;;;5062590;28;20016;-79
2022/02/27 11:00:36;;;;;;;13.88;5.88;;;9.40;61.60;;;;;;5087976;28;20032;-84
2022/02/27 11:03:10;;;;;;;8.15;5.18;;;9.50;61.70;;;;;;5061966;28;20077;-87
2022/02/27 11:05:42;;;;;;;12.20;5.32;;;9.50;61.60;;;;;;5067941;28;20029;-85
2022/02/27 11:08:12;;;;;;;9.13;4.78;;;9.50;61.50;;;;;;5083548;28;20664;-87
2022/02/27 11:10:43;;;;;;;8.48;4.22;;;9.60;61.60;;;;;;5060421;28;20391;-89
2022/02/27 11:13:10;;;;;;;8.18;4.47;;;9.60;61.60;;;;;;5080321;28;20025;-94
2022/02/27 11:15:38;;;;;;;9.02;3.70;;;9.70;61.70;;;;;;5068822;28;20024;-78
2022/02/27 11:18:08;;;;;;;6.53;3.88;;;9.70;61.70;;;;;;5070237;28;20025;-82
2022/02/27 11:20:34;;;;;;;8.45;3.97;;;9.70;61.60;;;;;;5080568;28;20047;-85
2022/02/27 11:23:01;;;;;;;8.35;4.53;;;9.80;61.70;;;;;;5090449;28;20054;-80
2022/02/27 11:25:29;;;;;;;7.78;3.63;;;9.80;61.70;;;;;;5076747;28;20028;-78
2022/02/27 11:28:05;;;;;;;7.57;4.30;;;9.80;61.70;;;;;;5091429;28;20047;-86
2022/02/27 11:30:38;;;;;;;8.20;4.10;;;9.90;62.10;;;;;;5070579;28;20106;-86
2022/02/27 11:33:14;;;;;;;9.43;4.35;;;10.00;62.20;;;;;;5053815;28;20037;-87
2022/02/27 11:35:50;;;;;;;5.97;3.90;;;10.10;62.30;;;;;;5071676;28;20556;-84
2022/02/27 11:38:37;;;;;;;9.70;4.68;;;10.10;62.20;;;;;;5053444;28;20033;-86
2022/02/27 11:41:17;;;;;;;7.40;3.97;;;10.20;62.30;;;;;;5071526;28;20028;-87
2022/02/27 11:44:00;;;;;;;7.82;3.70;;;10.20;62.20;;;;;;5071634;28;20094;-90
2022/02/27 11:46:35;;;;;;;9.27;3.67;;;10.30;62.40;;;;;;5084588;28;20036;-89
2022/02/27 11:49:06;;;;;;;10.07;4.38;;;10.30;62.30;;;;;;5090417;28;20032;-89
2022/02/27 11:51:38;;;;;;;6.57;3.30;;;10.40;62.30;;;;;;5089385;28;20051;-88
2022/02/27 11:54:08;;;;;;;5.50;3.22;;;10.40;62.30;;;;;;5083987;28;20019;-80
2022/02/27 11:56:39;;;;;;;9.63;3.70;;;10.50;62.40;;;;;;5072379;28;20396;-80
2022/02/27 11:59:10;;;;;;;7.93;3.70;;;10.50;62.30;;;;;;5080202;28;20464;-78
2022/02/27 12:01:53;;;;;;;6.50;3.70;;;10.50;62.20;;;;;;5078035;28;20067;-80
2022/02/27 12:04:19;;;;;;;7.88;3.88;;;10.60;62.30;;;;;;5090206;28;20085;-80
2022/02/27 12:07:11;;;;;;;7.10;4.45;;;10.60;62.20;;;;;;5097155;28;20040;-79
2022/02/27 12:09:52;;;;;;;7.90;3.67;;;10.70;62.30;;;;;;5077284;28;20040;-82
2022/02/27 12:12:37;;;;;;;9.30;4.05;;;10.70;62.20;;;;;;5094411;28;20039;-81
2022/02/27 12:15:35;;;;;;;8.93;4.18;;;10.70;62.10;;;;;;5079227;28;20028;-83
2022/02/27 12:18:22;;;;;;;9.25;3.90;;;10.80;62.30;;;;;;5093177;28;20137;-80
2022/02/27 12:20:57;;;;;;;7.95;4.18;;;10.90;62.50;;;;;;5093061;28;20039;-81
2022/02/27 12:23:33;;;;;;;8.90;3.70;;;11.00;62.70;;;;;;5092082;28;20027;-80
2022/02/27 12:26:05;;;;;;;9.02;4.28;;;11.10;62.80;;;;;;5092309;28;20494;-80
2022/02/27 12:28:52;;;;;;;12.40;5.03;;;11.10;62.80;;;;;;5084088;28;20063;-81
2022/02/27 12:31:30;;;;;;;8.13;5.68;;;11.20;62.90;;;;;;5071559;28;20029;-82
2022/02/27 12:33:58;;;;;;;7.72;4.38;;;11.30;63.00;;;;;;5051997;28;20025;-86
2022/02/27 12:36:36;;;;;;;10.52;4.82;;;11.30;62.90;;;;;;5052895;28;20063;-83
2022/02/27 12:39:05;;;;;;;10.70;4.43;;;11.40;63.00;;;;;;5063195;28;20031;-79
2022/02/27 12:41:34;;;;;;;9.13;4.30;;;11.40;62.90;;;;;;5071306;28;20032;-85
2022/02/27 12:44:02;;;;;;;9.43;4.50;;;11.50;63.00;;;;;;5089371;28;20437;-82
2022/02/27 12:46:29;;;;;;;8.60;3.80;;;11.60;63.00;;;;;;5071212;28;20039;-82
2022/02/27 12:51:40;;;;;;;6.70;4.18;;;11.70;63.00;;;;;;5070535;28;20119;-79
2022/02/27 12:54:12;;;;;;;7.68;4.03;;;11.70;62.80;;;;;;5054096;28;20170;-82
2022/02/27 12:56:38;;;;;;;7.47;4.88;;;11.80;62.80;;;;;;5071394;28;20192;-89
2022/02/27 12:59:05;;;;;;;7.75;4.05;;;11.90;62.90;;;;;;5071229;28;20126;-89